createdAt,value
2023-03-17T00:01:00.229Z,43.88
2023-03-17T00:06:04.866Z,49.67
2023-03-17T00:11:13.987Z,41.22
2023-03-17T00:16:22.406Z,48.15
2023-03-17T00:21:34.410Z,50.83
2023-03-17T00:26:37.116Z,50.88
2023-03-17T00:31:40.414Z,44.75
2023-03-17T00:36:46.437Z,46.30
2023-03-17T00:41:49.412Z,46.53
2023-03-17T00:46:53.520Z,48.13
2023-03-17T00:51:56.248Z,44.40
2023-03-17T00:56:59.004Z,46.15
2023-03-17T01:02:01.959Z,49.10
2023-03-17T01:07:05.221Z,45.33
2023-03-17T01:12:12.895Z,51.17
2023-03-17T01:17:18.482Z,47.60
2023-03-17T01:22:21.048Z,47.28
2023-03-17T01:27:24.374Z,48.17
2023-03-17T01:32:27.346Z,42.92
2023-03-17T01:37:29.967Z,44.38
2023-03-17T01:42:32.877Z,41.53
2023-03-17T01:47:36.506Z,43.22
2023-03-17T01:52:40.790Z,50.05
2023-03-17T01:57:54.768Z,41.70
2023-03-17T02:02:57.772Z,42.28
2023-03-17T02:08:00.570Z,46.28
2023-03-17T02:13:05.987Z,39.80
2023-03-17T02:18:10.239Z,50.35
2023-03-17T02:23:17.313Z,45.35
2023-03-17T02:28:26.245Z,45.92
2023-03-17T02:33:29.044Z,42.13
2023-03-17T02:38:32.063Z,41.78
2023-03-17T02:43:36.487Z,42.38
2023-03-17T02:48:40.785Z,43.47
2023-03-17T02:53:43.325Z,42.28
2023-03-17T02:58:45.773Z,39.10
2023-03-17T03:03:48.843Z,43.00
2023-03-17T03:08:52.229Z,38.72
2023-03-17T03:13:54.792Z,44.10
2023-03-17T03:18:57.780Z,41.78
2023-03-17T03:24:00.361Z,38.28
2023-03-17T03:29:04.378Z,38.67
2023-03-17T03:34:07.599Z,39.35
2023-03-17T03:39:11.904Z,35.45
2023-03-17T03:44:15.712Z,40.03
2023-03-17T03:49:18.359Z,33.90
2023-03-17T03:54:21.025Z,33.50
2023-03-17T03:59:23.669Z,35.33
2023-03-17T04:04:26.694Z,34.97
2023-03-17T04:09:29.307Z,34.50
2023-03-17T04:14:31.952Z,37.75
2023-03-17T04:19:34.468Z,37.53
2023-03-17T04:24:37.415Z,32.15
2023-03-17T04:29:40.027Z,35.13
2023-03-17T04:34:43.214Z,35.47
2023-03-17T04:39:45.860Z,32.47
2023-03-17T04:44:48.352Z,32.35
2023-03-17T04:49:51.050Z,32.00
2023-03-17T04:54:53.706Z,30.48
2023-03-17T04:59:57.849Z,32.13
2023-03-17T05:05:00.680Z,34.17
2023-03-17T05:10:03.526Z,34.10
2023-03-17T05:15:07.141Z,29.70
2023-03-17T05:20:11.024Z,29.75
2023-03-17T05:25:13.575Z,29.98
2023-03-17T05:30:17.222Z,31.27
2023-03-17T05:35:20.227Z,34.03
2023-03-17T05:40:24.677Z,32.97
2023-03-17T05:45:27.292Z,32.97
2023-03-17T05:50:31.184Z,27.17
2023-03-17T05:55:33.864Z,28.83
2023-03-17T06:00:38.035Z,31.67
2023-03-17T06:05:41.065Z,32.72
2023-03-17T06:10:43.835Z,31.60
2023-03-17T06:15:48.806Z,25.98
2023-03-17T06:20:51.863Z,29.30
2023-03-17T06:25:54.665Z,30.13
2023-03-17T06:30:57.311Z,30.45
2023-03-17T06:36:00.928Z,34.03
2023-03-17T06:41:03.772Z,31.38
2023-03-17T06:46:07.698Z,30.38
2023-03-17T06:51:10.501Z,29.67
2023-03-17T06:56:27.373Z,28.58
2023-03-17T07:01:32.560Z,27.42
2023-03-17T07:06:35.641Z,25.38
2023-03-17T07:11:38.723Z,29.42
2023-03-17T07:16:41.280Z,29.45
2023-03-17T07:21:45.991Z,27.65
2023-03-17T07:26:49.621Z,26.02
2023-03-17T07:31:52.344Z,26.90
2023-03-17T07:36:55.015Z,26.35
2023-03-17T07:41:57.543Z,29.98
2023-03-17T07:47:00.781Z,25.17
2023-03-17T07:52:03.514Z,30.88
2023-03-17T07:57:06.616Z,25.92
2023-03-17T08:02:16.755Z,24.25
2023-03-17T08:12:22.382Z,26.10
2023-03-17T08:17:27.850Z,27.23
2023-03-17T08:22:30.574Z,27.98
2023-03-17T08:27:33.963Z,23.38
2023-03-17T08:32:37.304Z,27.30
2023-03-17T08:37:40.699Z,25.17
2023-03-17T08:42:45.001Z,26.55
2023-03-17T08:47:48.230Z,23.65
2023-03-17T08:52:52.054Z,21.98
2023-03-17T08:57:54.675Z,24.10
2023-03-17T09:02:58.394Z,24.20
2023-03-17T09:08:01.216Z,23.27
2023-03-17T09:13:04.578Z,25.00
2023-03-17T09:18:09.327Z,22.48
2023-03-17T09:23:14.457Z,23.20
2023-03-17T09:28:17.705Z,23.25
2023-03-17T09:38:28.740Z,16.35
2023-03-17T09:43:55.894Z,20.05
2023-03-17T09:49:12.179Z,20.52
2023-03-17T09:54:28.399Z,23.02
2023-03-17T10:04:37.442Z,20.27
2023-03-17T10:09:47.138Z,21.70
2023-03-17T10:20:13.070Z,19.65
2023-03-17T10:25:18.011Z,17.83
2023-03-17T10:30:23.744Z,16.70
2023-03-17T10:35:26.752Z,21.35
2023-03-17T10:40:31.994Z,22.55
2023-03-17T10:45:40.955Z,19.13
2023-03-17T10:50:49.378Z,16.42
2023-03-17T10:55:53.662Z,18.73
2023-03-17T11:01:03.534Z,19.90
2023-03-17T11:06:13.300Z,17.30
2023-03-17T11:16:39.311Z,18.05
2023-03-17T11:22:16.073Z,23.25
2023-03-17T11:27:35.233Z,18.90
2023-03-17T11:32:52.124Z,19.10
2023-03-17T11:38:22.389Z,17.58
2023-03-17T11:43:54.667Z,16.20
2023-03-17T11:49:05.362Z,18.20
2023-03-17T11:54:54.248Z,17.00
2023-03-17T12:00:31.945Z,17.52
2023-03-17T12:05:37.704Z,18.27
2023-03-17T12:10:48.028Z,18.17
2023-03-17T12:16:01.357Z,19.80
2023-03-17T12:21:23.698Z,16.48
2023-03-17T12:26:40.193Z,18.17
2023-03-17T12:32:09.069Z,19.75
2023-03-17T12:37:13.319Z,18.88
2023-03-17T12:47:58.604Z,18.35
2023-03-17T12:53:06.151Z,19.42
2023-03-17T12:58:27.190Z,15.27
2023-03-17T13:03:34.947Z,18.65
2023-03-17T13:08:42.590Z,16.80
2023-03-17T13:14:15.736Z,16.90
2023-03-17T13:19:28.799Z,17.42
2023-03-17T13:24:40.949Z,17.45
2023-03-17T13:29:46.097Z,17.77
2023-03-17T13:35:02.583Z,17.23
2023-03-17T13:40:23.578Z,20.55
2023-03-17T13:45:48.976Z,18.23
2023-03-17T13:51:04.597Z,34.55
2023-03-17T13:56:49.358Z,33.88
2023-03-17T14:02:02.187Z,33.30
2023-03-17T14:07:16.438Z,32.17
2023-03-17T14:12:51.125Z,32.97
2023-03-17T14:18:03.604Z,26.13
2023-03-17T14:23:06.934Z,27.65
2023-03-17T14:28:16.980Z,30.80
2023-03-17T14:33:38.260Z,28.90
2023-03-17T14:38:48.824Z,30.30
2023-03-17T14:43:53.076Z,29.83
2023-03-17T14:49:17.017Z,26.65
2023-03-17T14:54:24.487Z,23.77
2023-03-17T14:59:37.942Z,25.92
2023-03-17T15:05:12.754Z,25.20
2023-03-17T15:10:26.174Z,24.30
2023-03-17T15:15:35.021Z,27.10
2023-03-17T15:20:39.548Z,27.92
2023-03-17T15:25:50.207Z,25.00
2023-03-17T15:30:56.719Z,29.95
2023-03-17T15:36:08.411Z,26.85
2023-03-17T15:41:13.713Z,27.70
2023-03-17T15:46:28.108Z,32.28
2023-03-17T15:51:31.415Z,27.63
2023-03-17T15:56:35.783Z,28.50
2023-03-17T16:01:39.563Z,29.92
2023-03-17T16:06:43.058Z,30.70
2023-03-17T16:11:47.873Z,29.92
2023-03-17T16:16:53.080Z,30.83
2023-03-17T16:21:56.629Z,24.00
2023-03-17T16:26:59.432Z,31.63
2023-03-17T16:32:02.852Z,25.83
2023-03-17T16:37:05.984Z,27.05
2023-03-17T16:42:24.763Z,26.45
2023-03-17T16:47:28.348Z,24.77
2023-03-17T16:52:31.583Z,26.42
2023-03-17T16:57:34.844Z,26.55
2023-03-17T17:02:37.465Z,28.50
2023-03-17T17:07:40.021Z,28.23
2023-03-17T17:12:43.449Z,27.48
2023-03-17T17:17:51.175Z,23.90
2023-03-17T17:22:53.768Z,27.23
2023-03-17T17:27:57.948Z,24.17
2023-03-17T17:33:01.166Z,26.88
2023-03-17T17:38:04.501Z,23.20
2023-03-17T17:43:07.076Z,24.27
2023-03-17T17:48:11.298Z,24.55
2023-03-17T17:53:15.040Z,24.38
2023-03-17T17:58:22.440Z,25.20
2023-03-17T18:03:26.566Z,25.42
2023-03-17T18:08:29.444Z,28.05
2023-03-17T18:13:33.011Z,29.23
2023-03-17T18:18:40.748Z,31.40
2023-03-17T18:23:47.567Z,31.13
2023-03-17T18:28:51.083Z,33.33
2023-03-17T18:33:58.142Z,31.63
2023-03-17T18:39:00.781Z,34.75
2023-03-17T18:44:03.724Z,27.08
2023-03-17T18:49:07.175Z,25.30
2023-03-17T18:54:10.148Z,26.77
2023-03-17T18:59:12.835Z,22.23
2023-03-17T19:04:15.830Z,17.73
2023-03-17T19:09:18.633Z,20.98
2023-03-17T19:14:21.245Z,22.02
2023-03-17T19:19:24.669Z,23.10
2023-03-17T19:24:27.806Z,23.05
2023-03-17T19:29:30.472Z,26.25
2023-03-17T19:34:32.964Z,20.25
2023-03-17T19:39:37.827Z,21.42
2023-03-17T19:44:40.835Z,21.05
2023-03-17T19:49:44.289Z,23.48
2023-03-17T19:54:46.920Z,24.10
2023-03-17T19:59:50.739Z,21.50
2023-03-17T20:04:53.786Z,20.00
2023-03-17T20:09:56.626Z,20.73
2023-03-17T20:15:01.676Z,20.40
2023-03-17T20:20:07.907Z,21.63
2023-03-17T20:30:13.624Z,25.13
2023-03-17T20:35:16.292Z,26.40
2023-03-17T20:40:19.154Z,26.35
2023-03-17T20:45:22.146Z,21.27
2023-03-17T20:50:25.468Z,19.70
2023-03-17T20:55:28.527Z,20.85
2023-03-17T21:00:32.147Z,22.40
2023-03-17T21:05:35.840Z,21.08
2023-03-17T21:10:38.504Z,20.70
2023-03-17T21:15:41.603Z,20.42
2023-03-17T21:20:44.157Z,23.35
2023-03-17T21:25:46.698Z,25.38
2023-03-17T21:30:49.819Z,24.67
2023-03-17T21:35:52.461Z,30.33
2023-03-17T21:40:56.150Z,30.95
2023-03-17T21:45:58.857Z,29.50
2023-03-17T21:51:01.448Z,28.83
2023-03-17T21:56:04.358Z,25.13
2023-03-17T22:01:07.042Z,17.75
2023-03-17T22:06:11.560Z,17.65
2023-03-17T22:11:17.924Z,18.67
2023-03-17T22:16:21.897Z,19.17
2023-03-17T22:21:25.302Z,17.42
2023-03-17T22:26:28.762Z,17.75
2023-03-17T22:31:31.676Z,20.90
2023-03-17T22:36:34.325Z,26.77
2023-03-17T22:41:38.202Z,24.10
2023-03-17T22:46:43.933Z,18.23
2023-03-17T22:51:48.222Z,16.55
2023-03-17T22:56:51.040Z,17.30
2023-03-17T23:01:53.452Z,21.55
2023-03-17T23:06:56.633Z,19.27
2023-03-17T23:11:59.946Z,21.13
2023-03-17T23:17:02.565Z,16.90
2023-03-17T23:22:05.205Z,17.73
2023-03-17T23:27:08.312Z,18.30
2023-03-17T23:32:12.710Z,18.85
2023-03-17T23:37:15.217Z,17.35
2023-03-17T23:42:18.417Z,18.67
2023-03-17T23:47:22.807Z,21.60
2023-03-17T23:52:25.891Z,18.17
2023-03-17T23:57:28.422Z,17.30
